Saturday, February 06, 2016
15:40 UTC
  |  Log In   |  Register Free
Airport Search:

Faribault Municipal Airport
(KFBL)

Faribault Municipal Airport Diagram
No Airport Diagram Available

FAA data valid effective Dec 10 2015 - Feb 4 2016 (unless otherwise noted).

 
 
 
 
 
 
 
 
 
 
 
 
 
 
Summary: Faribault Municipal (FBL)

Weather Summary


METAR for KFBL is not available. Closest METAR is for KOWA
KFBL  (most recent observation was updatred at 61:51 UTC)
061514Z AUTO 20007G15KT 2 1/2SM -SN OVC005 M03/M04 A3012 RMK AO2

KOWA  (12.5 nm NW)   (most recent observation was updated at 61:51 UTC)
061515Z AUTO 20013KT 1 3/4SM -SN OVC003 M04/M05 A3011 RMK AO2

KSYN  (15.5 nm SW)   (most recent observation was updated at 61:51 UTC)
061515Z AUTO 21007KT 3SM -SN OVC007 M02/M04 A3011 RMK AO2 T10251044

TAF for KFBL is not available.
KMSP  (33.5 nm SW)   (most recent observation was updatred at 61:40 UTC)
AMD 061400Z 0614/0718 18008KT P6SM OVC009 FM061800 19012KT P6SM BKN060 FM062100 21012G18KT P6SM OVC070 WS020/27040KT FM071400 25017G25KT 6SM -SHSN BR OVC040 PROB30 0714/0718 3SM -SN OVC025


GlobalAir.com is loading additional information.
 Current Weather at FBL
25.0 F° (-4.0 C°)
Light Snow
South winds at 10.4 mph
Pressure:
30.14 in
Humidity:
100%
Wind:
from the South at 10.4 gusting to 16.1 MPH (9 gusting to 14 KT)
Dew Point:
24.8 F° (-4.0 C°)
Visibility:
3.00 mi
FBL NOAA Radar

Runway Summary

ID Dimensions Surface Instrument Approaches
12/30 75 ft x 4257 ft Asphalt, Good Condition RNAV (GPS) RWY 12
RNAV (GPS) RWY 12
RNAV (GPS) RWY 30
VOR-A
01/19 175 ft x 2300 ft Turf N/A

Communications Summary


CTAF122.80
UNICOM122.80
ATISN/A
WX AWOS-3
MINNEAPOLIS APPROACH134.7
MINNEAPOLIS DEPARTURE134.7
CLEARANCE DELIVERYN/A

Terminal Procedures Summary


Arrivals
Approaches
More Approaches
Special Minimums

Closest Alternate Airports with Instrument Procedures

KOWA - Owatonna Degner Regional - 14.3 nm SE from FBL

0MN1 - Mayo Clinic Health System - New Prague - 17.3 nm NW from FBL

KLVN - Airlake - 21.2 nm NE from FBL

KACQ - Waseca Municipal - 21.3 nm SW from FBL

KMKT - Mankato Regional - 31 nm SW from FBL

KTOB - Dodge Center - 32 nm SE from FBL

KFCM - Flying Cloud - 35.3 nm NW from FBL

KMSP - Minneapolis-St Paul International/Wold-Chamberlain - 38.6 nm NE from FBL

KSGS - South St Paul Municipal-Richard E Fleming Fld - 39.1 nm NE from FBL

KSTP - St Paul Downtown Holman Fld - 43.8 nm NE from FBL

Find All Airport Services Find A Hotel Find A Rental Car Find A Golf Course Find A Restaurant $100 Hamburger



FBO's on the Field
FBO Company Facility Photos Services Transportation Aviation Fuel Prices: Prices include tax
Catering Weather Repair Courtesy Rental Type 100LL JetA JetA+ MOGAS 8087
 
Quality Aviation

This FBO has not yet been rated
FS:Independent
Last Updated: Jan-11
Login to update fuel prices
SS:
Contact Quality AviationMore FBO Information
 
Add another FBO Facility Photos Catering Weather Repair Courtesy Rental Type 100LL JetA JetA+ MOGAS 8087
Services Transportation Aviation Fuel Prices: Prices include tax


model-print
model-print
model-print
model-print